sensor_id;sensor_type;location;lat;lon;timestamp;pressure;altitude;pressure_sealevel;temperature;humidity
9415;BME280;4746;35.664;139.738;2022-12-11T00:13:18;99879.06;;;15.69;44.63
9415;BME280;4746;35.664;139.738;2022-12-11T00:15:46;99878.00;;;15.79;45.16
9415;BME280;4746;35.664;139.738;2022-12-11T00:18:14;99877.66;;;15.97;44.74
9415;BME280;4746;35.664;139.738;2022-12-11T00:20:42;99882.63;;;16.07;44.60
9415;BME280;4746;35.664;139.738;2022-12-11T00:23:10;99894.38;;;16.21;44.54
9415;BME280;4746;35.664;139.738;2022-12-11T00:25:43;99900.88;;;16.42;44.30
9415;BME280;4746;35.664;139.738;2022-12-11T00:28:14;99904.81;;;16.58;43.91
9415;BME280;4746;35.664;139.738;2022-12-11T00:30:45;99910.53;;;16.71;43.64
9415;BME280;4746;35.664;139.738;2022-12-11T00:33:16;99910.16;;;16.88;43.76
9415;BME280;4746;35.664;139.738;2022-12-11T00:35:46;99918.38;;;17.05;43.34
9415;BME280;4746;35.664;139.738;2022-12-11T00:38:21;99906.81;;;17.19;42.86
9415;BME280;4746;35.664;139.738;2022-12-11T00:40:49;99910.19;;;17.21;42.63
9415;BME280;4746;35.664;139.738;2022-12-11T00:43:16;99907.59;;;17.23;41.94
9415;BME280;4746;35.664;139.738;2022-12-11T00:45:46;99911.78;;;17.28;42.33
9415;BME280;4746;35.664;139.738;2022-12-11T00:48:14;99923.00;;;17.29;41.92
9415;BME280;4746;35.664;139.738;2022-12-11T00:50:42;99930.66;;;17.33;42.05
9415;BME280;4746;35.664;139.738;2022-12-11T00:53:09;99918.53;;;17.35;41.70
9415;BME280;4746;35.664;139.738;2022-12-11T00:55:40;99923.63;;;17.38;41.75
9415;BME280;4746;35.664;139.738;2022-12-11T00:58:10;99926.09;;;17.42;41.63
9415;BME280;4746;35.664;139.738;2022-12-11T01:00:39;99921.06;;;17.37;41.50
9415;BME280;4746;35.664;139.738;2022-12-11T01:03:08;99922.00;;;17.34;41.63
9415;BME280;4746;35.664;139.738;2022-12-11T01:05:36;99910.75;;;17.35;41.83
9415;BME280;4746;35.664;139.738;2022-12-11T01:08:04;99907.34;;;17.33;42.03
9415;BME280;4746;35.664;139.738;2022-12-11T01:10:32;99912.41;;;17.38;41.97
9415;BME280;4746;35.664;139.738;2022-12-11T01:13:07;99920.75;;;17.48;41.87
9415;BME280;4746;35.664;139.738;2022-12-11T01:15:40;99912.91;;;17.51;41.68
9415;BME280;4746;35.664;139.738;2022-12-11T01:18:10;99914.53;;;17.55;41.84
9415;BME280;4746;35.664;139.738;2022-12-11T01:20:41;99917.06;;;17.57;41.94
9415;BME280;4746;35.664;139.738;2022-12-11T01:23:12;99915.16;;;17.65;41.78
9415;BME280;4746;35.664;139.738;2022-12-11T01:25:41;99911.72;;;17.64;41.46
9415;BME280;4746;35.664;139.738;2022-12-11T01:28:09;99914.38;;;17.61;41.75
9415;BME280;4746;35.664;139.738;2022-12-11T01:30:39;99920.38;;;17.63;41.49
9415;BME280;4746;35.664;139.738;2022-12-11T01:33:07;99909.25;;;17.60;41.50
9415;BME280;4746;35.664;139.738;2022-12-11T01:35:35;99911.78;;;17.61;41.47
9415;BME280;4746;35.664;139.738;2022-12-11T01:38:02;99903.19;;;17.59;41.92
9415;BME280;4746;35.664;139.738;2022-12-11T01:40:30;99897.19;;;17.59;42.07
9415;BME280;4746;35.664;139.738;2022-12-11T01:42:59;99895.31;;;17.64;41.54
9415;BME280;4746;35.664;139.738;2022-12-11T01:45:47;99891.50;;;17.77;41.59
9415;BME280;4746;35.664;139.738;2022-12-11T01:48:24;99890.66;;;17.76;41.51
9415;BME280;4746;35.664;139.738;2022-12-11T01:51:02;99885.28;;;17.84;41.75
9415;BME280;4746;35.664;139.738;2022-12-11T01:53:42;99891.84;;;17.95;41.57
9415;BME280;4746;35.664;139.738;2022-12-11T01:56:12;99884.59;;;18.06;41.61
9415;BME280;4746;35.664;139.738;2022-12-11T01:58:50;99886.81;;;18.21;41.80
9415;BME280;4746;35.664;139.738;2022-12-11T02:04:23;99876.50;;;18.47;41.60
9415;BME280;4746;35.664;139.738;2022-12-11T02:06:53;99891.44;;;18.68;41.30
9415;BME280;4746;35.664;139.738;2022-12-11T02:09:26;99886.13;;;18.72;41.08
9415;BME280;4746;35.664;139.738;2022-12-11T02:17:47;99866.31;;;18.95;40.86
9415;BME280;4746;35.664;139.738;2022-12-11T02:28:47;99858.31;;;19.53;40.19
9415;BME280;4746;35.664;139.738;2022-12-11T02:34:43;99853.78;;;20.07;39.82
9415;BME280;4746;35.664;139.738;2022-12-11T02:37:21;99833.81;;;20.30;39.41
9415;BME280;4746;35.664;139.738;2022-12-11T02:39:53;99846.53;;;20.59;39.23
9415;BME280;4746;35.664;139.738;2022-12-11T02:42:27;99840.09;;;20.90;38.85
9415;BME280;4746;35.664;139.738;2022-12-11T02:45:00;99834.72;;;21.14;38.17
9415;BME280;4746;35.664;139.738;2022-12-11T02:47:32;99826.06;;;21.14;37.94
9415;BME280;4746;35.664;139.738;2022-12-11T02:50:07;99825.91;;;21.17;37.73
9415;BME280;4746;35.664;139.738;2022-12-11T02:52:37;99821.09;;;21.28;37.56
9415;BME280;4746;35.664;139.738;2022-12-11T02:55:09;99813.53;;;21.42;37.79
9415;BME280;4746;35.664;139.738;2022-12-11T02:58:33;99826.00;;;21.55;37.69
9415;BME280;4746;35.664;139.738;2022-12-11T03:00:36;99812.72;;;21.61;37.12
9415;BME280;4746;35.664;139.738;2022-12-11T03:03:04;99817.22;;;21.58;37.01
9415;BME280;4746;35.664;139.738;2022-12-11T03:05:32;99817.84;;;21.63;36.99
9415;BME280;4746;35.664;139.738;2022-12-11T03:08:01;99814.34;;;21.64;36.67
9415;BME280;4746;35.664;139.738;2022-12-11T03:10:29;99811.34;;;21.72;36.91
9415;BME280;4746;35.664;139.738;2022-12-11T03:12:58;99826.72;;;22.15;36.33
9415;BME280;4746;35.664;139.738;2022-12-11T03:18:43;99832.69;;;22.91;35.17
9415;BME280;4746;35.664;139.738;2022-12-11T03:24:27;99816.94;;;22.57;35.59
9415;BME280;4746;35.664;139.738;2022-12-11T03:27:02;99814.56;;;22.34;36.32
9415;BME280;4746;35.664;139.738;2022-12-11T03:29:41;99827.97;;;22.08;35.96
9415;BME280;4746;35.664;139.738;2022-12-11T03:32:20;99830.69;;;21.87;36.47
9415;BME280;4746;35.664;139.738;2022-12-11T03:35:01;99838.97;;;21.57;36.70
9415;BME280;4746;35.664;139.738;2022-12-11T03:37:36;99836.00;;;21.24;37.14
9415;BME280;4746;35.664;139.738;2022-12-11T03:40:15;99834.78;;;21.13;37.76
9415;BME280;4746;35.664;139.738;2022-12-11T03:42:46;99814.31;;;21.83;36.90
9415;BME280;4746;35.664;139.738;2022-12-11T03:45:18;99822.59;;;22.11;36.67
9415;BME280;4746;35.664;139.738;2022-12-11T03:47:48;99815.06;;;23.29;35.17
9415;BME280;4746;35.664;139.738;2022-12-11T03:50:19;99813.50;;;24.24;33.73
9415;BME280;4746;35.664;139.738;2022-12-11T03:52:50;99814.00;;;25.50;31.89
9415;BME280;4746;35.664;139.738;2022-12-11T03:55:20;99814.31;;;26.29;30.67
9415;BME280;4746;35.664;139.738;2022-12-11T03:57:49;99809.91;;;27.35;29.74
9415;BME280;4746;35.664;139.738;2022-12-11T04:00:20;99810.66;;;28.11;29.01
9415;BME280;4746;35.664;139.738;2022-12-11T04:02:49;99797.28;;;29.09;27.99
9415;BME280;4746;35.664;139.738;2022-12-11T04:05:35;99794.69;;;30.20;26.81
9415;BME280;4746;35.664;139.738;2022-12-11T04:08:03;99788.47;;;30.74;26.08
9415;BME280;4746;35.664;139.738;2022-12-11T04:10:31;99784.97;;;31.57;25.27
9415;BME280;4746;35.664;139.738;2022-12-11T04:12:58;99787.63;;;32.07;24.38
9415;BME280;4746;35.664;139.738;2022-12-11T04:15:26;99794.94;;;32.24;24.01
9415;BME280;4746;35.664;139.738;2022-12-11T04:17:53;99789.50;;;32.83;23.39
9415;BME280;4746;35.664;139.738;2022-12-11T04:20:39;99778.19;;;33.38;23.09
9415;BME280;4746;35.664;139.738;2022-12-11T04:23:24;99774.59;;;33.85;22.43
9415;BME280;4746;35.664;139.738;2022-12-11T04:26:19;99789.63;;;34.12;21.77
9415;BME280;4746;35.664;139.738;2022-12-11T04:28:48;99777.25;;;34.21;21.96
9415;BME280;4746;35.664;139.738;2022-12-11T04:31:20;99773.31;;;34.69;21.75
9415;BME280;4746;35.664;139.738;2022-12-11T04:33:48;99767.47;;;34.65;20.82
9415;BME280;4746;35.664;139.738;2022-12-11T04:36:16;99763.53;;;34.69;21.18
9415;BME280;4746;35.664;139.738;2022-12-11T04:38:44;99759.50;;;34.83;20.65
9415;BME280;4746;35.664;139.738;2022-12-11T04:41:14;99769.13;;;34.66;21.19
9415;BME280;4746;35.664;139.738;2022-12-11T04:43:42;99760.06;;;34.60;21.04
9415;BME280;4746;35.664;139.738;2022-12-11T04:46:23;99764.97;;;34.81;20.82
9415;BME280;4746;35.664;139.738;2022-12-11T04:48:52;99757.97;;;35.33;20.99
9415;BME280;4746;35.664;139.738;2022-12-11T04:51:20;99758.50;;;35.01;20.07
9415;BME280;4746;35.664;139.738;2022-12-11T04:53:48;99754.59;;;33.81;21.28
9415;BME280;4746;35.664;139.738;2022-12-11T04:56:16;99759.78;;;33.82;21.11
9415;BME280;4746;35.664;139.738;2022-12-11T04:58:44;99741.38;;;33.62;21.56
9415;BME280;4746;35.664;139.738;2022-12-11T05:01:16;99748.94;;;33.47;22.01
9415;BME280;4746;35.664;139.738;2022-12-11T05:03:44;99760.19;;;32.75;22.32
9415;BME280;4746;35.664;139.738;2022-12-11T05:06:13;99764.16;;;30.80;24.51
9415;BME280;4746;35.664;139.738;2022-12-11T05:08:43;99774.22;;;28.77;26.55
9415;BME280;4746;35.664;139.738;2022-12-11T05:11:14;99786.06;;;27.12;28.54
9415;BME280;4746;35.664;139.738;2022-12-11T05:13:44;99796.25;;;25.83;30.36
9415;BME280;4746;35.664;139.738;2022-12-11T05:16:15;99812.13;;;24.78;31.81
9415;BME280;4746;35.664;139.738;2022-12-11T05:18:43;99805.31;;;23.82;33.63
9415;BME280;4746;35.664;139.738;2022-12-11T05:21:13;99815.59;;;23.02;34.43
9415;BME280;4746;35.664;139.738;2022-12-11T05:23:42;99816.88;;;22.40;35.69
9415;BME280;4746;35.664;139.738;2022-12-11T05:26:16;99811.22;;;21.94;36.22
9415;BME280;4746;35.664;139.738;2022-12-11T05:28:49;99817.31;;;21.35;38.09
9415;BME280;4746;35.664;139.738;2022-12-11T05:31:21;99825.22;;;20.92;38.86
9415;BME280;4746;35.664;139.738;2022-12-11T05:33:50;99835.19;;;20.60;39.40
9415;BME280;4746;35.664;139.738;2022-12-11T05:36:25;99825.03;;;20.32;39.98
9415;BME280;4746;35.664;139.738;2022-12-11T05:38:53;99834.88;;;20.02;40.61
9415;BME280;4746;35.664;139.738;2022-12-11T05:41:24;99833.88;;;19.81;41.08
9415;BME280;4746;35.664;139.738;2022-12-11T05:43:52;99850.88;;;19.67;41.59
9415;BME280;4746;35.664;139.738;2022-12-11T05:46:27;99850.34;;;19.57;41.82
9415;BME280;4746;35.664;139.738;2022-12-11T05:49:01;99854.94;;;19.51;41.75
9415;BME280;4746;35.664;139.738;2022-12-11T05:51:29;99863.16;;;19.39;42.07
9415;BME280;4746;35.664;139.738;2022-12-11T05:53:58;99862.88;;;19.22;42.25
9415;BME280;4746;35.664;139.738;2022-12-11T05:56:29;99866.78;;;19.08;42.69
9415;BME280;4746;35.664;139.738;2022-12-11T05:58:59;99872.31;;;18.97;42.77
9415;BME280;4746;35.664;139.738;2022-12-11T06:01:30;99882.00;;;18.92;42.81
9415;BME280;4746;35.664;139.738;2022-12-11T06:03:59;99885.88;;;18.80;43.08
9415;BME280;4746;35.664;139.738;2022-12-11T06:06:27;99883.84;;;18.62;43.33
9415;BME280;4746;35.664;139.738;2022-12-11T06:08:57;99888.59;;;18.48;43.47
9415;BME280;4746;35.664;139.738;2022-12-11T06:11:28;99896.72;;;18.36;43.99
9415;BME280;4746;35.664;139.738;2022-12-11T06:13:57;99900.75;;;18.17;44.04
9415;BME280;4746;35.664;139.738;2022-12-11T06:16:25;99895.09;;;18.03;44.41
9415;BME280;4746;35.664;139.738;2022-12-11T06:18:53;99903.91;;;17.96;44.77
9415;BME280;4746;35.664;139.738;2022-12-11T06:21:23;99899.59;;;17.97;44.88
9415;BME280;4746;35.664;139.738;2022-12-11T06:23:53;99908.22;;;17.97;44.98
9415;BME280;4746;35.664;139.738;2022-12-11T06:26:22;99908.13;;;18.00;44.93
9415;BME280;4746;35.664;139.738;2022-12-11T06:28:51;99910.75;;;17.99;44.86
9415;BME280;4746;35.664;139.738;2022-12-11T06:31:20;99924.00;;;17.88;45.43
9415;BME280;4746;35.664;139.738;2022-12-11T06:33:47;99927.69;;;17.81;45.35
9415;BME280;4746;35.664;139.738;2022-12-11T06:36:23;99934.63;;;17.79;45.51
9415;BME280;4746;35.664;139.738;2022-12-11T06:38:52;99931.25;;;17.76;45.32
9415;BME280;4746;35.664;139.738;2022-12-11T06:41:21;99923.69;;;17.68;45.76
9415;BME280;4746;35.664;139.738;2022-12-11T06:43:48;99935.06;;;17.63;45.75
9415;BME280;4746;35.664;139.738;2022-12-11T06:46:21;99936.09;;;17.57;45.85
9415;BME280;4746;35.664;139.738;2022-12-11T06:48:50;99940.75;;;17.43;46.07
9415;BME280;4746;35.664;139.738;2022-12-11T06:51:22;99956.69;;;17.29;45.84
9415;BME280;4746;35.664;139.738;2022-12-11T06:53:55;99958.69;;;17.15;46.30
9415;BME280;4746;35.664;139.738;2022-12-11T06:56:24;99960.75;;;17.01;46.65
9415;BME280;4746;35.664;139.738;2022-12-11T06:58:52;99976.53;;;16.90;46.74
9415;BME280;4746;35.664;139.738;2022-12-11T07:01:26;99980.13;;;16.83;46.60
9415;BME280;4746;35.664;139.738;2022-12-11T07:03:56;99979.47;;;16.74;47.02
9415;BME280;4746;35.664;139.738;2022-12-11T07:06:26;99962.31;;;16.70;46.98
9415;BME280;4746;35.664;139.738;2022-12-11T07:08:55;99974.66;;;16.59;47.14
9415;BME280;4746;35.664;139.738;2022-12-11T07:11:22;99973.97;;;16.50;47.44
9415;BME280;4746;35.664;139.738;2022-12-11T07:13:50;99981.88;;;16.42;47.18
9415;BME280;4746;35.664;139.738;2022-12-11T07:16:18;100006.13;;;16.37;47.19
9415;BME280;4746;35.664;139.738;2022-12-11T07:18:50;100008.75;;;16.34;47.06
9415;BME280;4746;35.664;139.738;2022-12-11T07:21:19;100015.78;;;16.27;46.86
9415;BME280;4746;35.664;139.738;2022-12-11T07:23:48;100017.59;;;16.22;47.05
9415;BME280;4746;35.664;139.738;2022-12-11T07:26:20;100004.78;;;16.16;46.78
9415;BME280;4746;35.664;139.738;2022-12-11T07:28:48;100015.34;;;16.04;46.56
9415;BME280;4746;35.664;139.738;2022-12-11T07:31:21;100018.91;;;15.98;46.70
9415;BME280;4746;35.664;139.738;2022-12-11T07:33:58;100020.69;;;15.94;46.58
9415;BME280;4746;35.664;139.738;2022-12-11T07:36:27;100029.41;;;15.89;46.87
9415;BME280;4746;35.664;139.738;2022-12-11T07:38:56;100033.69;;;15.90;46.84
9415;BME280;4746;35.664;139.738;2022-12-11T07:41:24;100045.72;;;15.92;47.08
9415;BME280;4746;35.664;139.738;2022-12-11T07:43:54;100047.44;;;15.92;46.70
9415;BME280;4746;35.664;139.738;2022-12-11T07:46:27;100055.22;;;15.90;46.57
9415;BME280;4746;35.664;139.738;2022-12-11T07:48:55;100074.31;;;15.82;46.38
9415;BME280;4746;35.664;139.738;2022-12-11T07:51:26;100069.25;;;15.76;46.57
9415;BME280;4746;35.664;139.738;2022-12-11T07:54:01;100079.66;;;15.71;46.59
9415;BME280;4746;35.664;139.738;2022-12-11T07:56:31;100074.50;;;15.70;46.30
9415;BME280;4746;35.664;139.738;2022-12-11T07:59:01;100078.84;;;15.68;46.06
9415;BME280;4746;35.664;139.738;2022-12-11T08:01:32;100080.59;;;15.64;45.87
9415;BME280;4746;35.664;139.738;2022-12-11T08:04:02;100091.09;;;15.55;45.89
9415;BME280;4746;35.664;139.738;2022-12-11T08:06:34;100080.03;;;15.46;46.13
9415;BME280;4746;35.664;139.738;2022-12-11T08:09:05;100077.53;;;15.41;46.08
9415;BME280;4746;35.664;139.738;2022-12-11T08:11:34;100092.19;;;15.38;46.13
9415;BME280;4746;35.664;139.738;2022-12-11T08:14:02;100087.09;;;15.35;45.87
9415;BME280;4746;35.664;139.738;2022-12-11T08:16:29;100083.69;;;15.33;46.59
9415;BME280;4746;35.664;139.738;2022-12-11T08:18:58;100088.81;;;15.36;46.47
9415;BME280;4746;35.664;139.738;2022-12-11T08:21:27;100089.66;;;15.36;46.44
9415;BME280;4746;35.664;139.738;2022-12-11T08:23:55;100109.44;;;15.37;46.30
9415;BME280;4746;35.664;139.738;2022-12-11T08:26:29;100109.41;;;15.39;46.12
9415;BME280;4746;35.664;139.738;2022-12-11T08:29:01;100113.75;;;15.35;46.23
9415;BME280;4746;35.664;139.738;2022-12-11T08:31:29;100126.69;;;15.34;46.06
9415;BME280;4746;35.664;139.738;2022-12-11T08:33:57;100118.91;;;15.35;45.92
9415;BME280;4746;35.664;139.738;2022-12-11T08:36:25;100119.78;;;15.36;45.78
9415;BME280;4746;35.664;139.738;2022-12-11T08:38:55;100130.97;;;15.36;45.91
9415;BME280;4746;35.664;139.738;2022-12-11T08:41:26;100128.41;;;15.35;45.86
9415;BME280;4746;35.664;139.738;2022-12-11T08:43:56;100128.41;;;15.35;45.82
9415;BME280;4746;35.664;139.738;2022-12-11T08:46:28;100140.44;;;15.34;45.92
9415;BME280;4746;35.664;139.738;2022-12-11T08:48:57;100136.19;;;15.33;45.75
9415;BME280;4746;35.664;139.738;2022-12-11T08:51:29;100140.47;;;15.33;46.11
9415;BME280;4746;35.664;139.738;2022-12-11T08:53:59;100144.72;;;15.35;45.82
9415;BME280;4746;35.664;139.738;2022-12-11T08:56:29;100145.56;;;15.39;45.70
9415;BME280;4746;35.664;139.738;2022-12-11T08:59:00;100154.94;;;15.43;45.62
9415;BME280;4746;35.664;139.738;2022-12-11T09:01:29;100156.75;;;15.39;45.15
9415;BME280;4746;35.664;139.738;2022-12-11T09:03:57;100163.66;;;15.37;44.82
9415;BME280;4746;35.664;139.738;2022-12-11T09:06:28;100160.19;;;15.38;45.08
9415;BME280;4746;35.664;139.738;2022-12-11T09:08:58;100160.19;;;15.37;45.04
9415;BME280;4746;35.664;139.738;2022-12-11T09:11:32;100167.13;;;15.35;45.10
9415;BME280;4746;35.664;139.738;2022-12-11T09:14:01;100168.84;;;15.34;45.33
9415;BME280;4746;35.664;139.738;2022-12-11T09:16:29;100174.88;;;15.35;44.72
9415;BME280;4746;35.664;139.738;2022-12-11T09:18:59;100185.22;;;15.32;44.72
9415;BME280;4746;35.664;139.738;2022-12-11T09:21:29;100188.66;;;15.31;44.63
9415;BME280;4746;35.664;139.738;2022-12-11T09:23:59;100191.25;;;15.32;44.90
9415;BME280;4746;35.664;139.738;2022-12-11T09:26:28;100176.59;;;15.33;44.78
9415;BME280;4746;35.664;139.738;2022-12-11T09:28:57;100176.59;;;15.33;44.56
9415;BME280;4746;35.664;139.738;2022-12-11T09:31:32;100187.81;;;15.32;44.30
9415;BME280;4746;35.664;139.738;2022-12-11T09:34:09;100193.03;;;15.29;44.42
9415;BME280;4746;35.664;139.738;2022-12-11T09:36:41;100195.63;;;15.26;44.35
9415;BME280;4746;35.664;139.738;2022-12-11T09:39:12;100190.47;;;15.26;44.70
9415;BME280;4746;35.664;139.738;2022-12-11T09:55:24;100236.91;;;15.29;43.21
9415;BME280;4746;35.664;139.738;2022-12-11T10:01:45;100230.09;;;15.22;42.60
9415;BME280;4746;35.664;139.738;2022-12-11T10:04:28;100244.75;;;15.17;42.68
9415;BME280;4746;35.664;139.738;2022-12-11T10:10:37;100247.41;;;15.11;41.84
9415;BME280;4746;35.664;139.738;2022-12-11T10:18:51;100264.75;;;14.96;40.73
9415;BME280;4746;35.664;139.738;2022-12-11T10:21:20;100257.94;;;14.92;40.45
9415;BME280;4746;35.664;139.738;2022-12-11T10:24:01;100260.50;;;14.90;40.06
9415;BME280;4746;35.664;139.738;2022-12-11T10:26:31;100265.72;;;14.84;40.19
9415;BME280;4746;35.664;139.738;2022-12-11T10:29:01;100271.72;;;14.86;40.38
9415;BME280;4746;35.664;139.738;2022-12-11T10:31:52;100270.00;;;14.88;40.22
9415;BME280;4746;35.664;139.738;2022-12-11T10:34:41;100264.84;;;14.88;40.07
9415;BME280;4746;35.664;139.738;2022-12-11T10:37:10;100272.63;;;14.82;40.04
9415;BME280;4746;35.664;139.738;2022-12-11T10:39:37;100279.50;;;14.85;40.16
9415;BME280;4746;35.664;139.738;2022-12-11T10:42:22;100277.69;;;14.91;40.24
9415;BME280;4746;35.664;139.738;2022-12-11T10:45:02;100278.53;;;14.93;40.22
9415;BME280;4746;35.664;139.738;2022-12-11T10:47:30;100270.84;;;14.92;40.19
9415;BME280;4746;35.664;139.738;2022-12-11T10:50:02;100281.09;;;14.96;40.22
9415;BME280;4746;35.664;139.738;2022-12-11T10:52:43;100283.59;;;15.02;39.73
9415;BME280;4746;35.664;139.738;2022-12-11T10:55:58;100287.88;;;15.05;39.96
9415;BME280;4746;35.664;139.738;2022-12-11T10:58:30;100290.53;;;14.97;39.89
9415;BME280;4746;35.664;139.738;2022-12-11T11:01:14;100286.22;;;14.99;39.95
9415;BME280;4746;35.664;139.738;2022-12-11T11:04:03;100288.81;;;14.96;39.66
9415;BME280;4746;35.664;139.738;2022-12-11T11:06:33;100300.91;;;14.91;39.73
9415;BME280;4746;35.664;139.738;2022-12-11T11:09:02;100295.75;;;14.91;39.86
9415;BME280;4746;35.664;139.738;2022-12-11T11:11:36;100300.94;;;14.93;39.79
9415;BME280;4746;35.664;139.738;2022-12-11T11:14:17;100306.91;;;14.95;39.94
9415;BME280;4746;35.664;139.738;2022-12-11T11:16:48;100310.34;;;14.94;40.00
9415;BME280;4746;35.664;139.738;2022-12-11T11:19:40;100308.59;;;14.99;40.27
9415;BME280;4746;35.664;139.738;2022-12-11T11:22:17;100318.09;;;14.95;39.87
9415;BME280;4746;35.664;139.738;2022-12-11T11:24:56;100323.28;;;14.92;39.84
9415;BME280;4746;35.664;139.738;2022-12-11T11:28:17;100315.56;;;14.88;39.63
9415;BME280;4746;35.664;139.738;2022-12-11T11:30:35;100316.50;;;14.82;39.69
9415;BME280;4746;35.664;139.738;2022-12-11T11:33:21;100314.78;;;14.78;39.93
9415;BME280;4746;35.664;139.738;2022-12-11T11:36:02;100320.88;;;14.73;40.00
9415;BME280;4746;35.664;139.738;2022-12-11T11:42:23;100338.94;;;14.71;40.10
9415;BME280;4746;35.664;139.738;2022-12-11T11:45:02;100332.94;;;14.69;39.94
9415;BME280;4746;35.664;139.738;2022-12-11T11:47:41;100326.91;;;14.70;40.54
9415;BME280;4746;35.664;139.738;2022-12-11T11:50:23;100322.66;;;14.66;40.16
9415;BME280;4746;35.664;139.738;2022-12-11T11:53:09;100333.84;;;14.62;40.25
9415;BME280;4746;35.664;139.738;2022-12-11T11:56:26;100335.59;;;14.60;40.10
9415;BME280;4746;35.664;139.738;2022-12-11T12:01:42;100345.09;;;14.48;40.89
9415;BME280;4746;35.664;139.738;2022-12-11T12:04:11;100336.56;;;14.43;40.91
9415;BME280;4746;35.664;139.738;2022-12-11T12:13:00;100339.09;;;14.48;41.49
9415;BME280;4746;35.664;139.738;2022-12-11T12:21:37;100331.13;;;14.79;41.91
9415;BME280;4746;35.664;139.738;2022-12-11T12:24:45;100331.03;;;14.88;41.81
9415;BME280;4746;35.664;139.738;2022-12-11T12:27:33;100334.41;;;14.96;41.59
9415;BME280;4746;35.664;139.738;2022-12-11T12:30:14;100336.06;;;15.04;41.59
9415;BME280;4746;35.664;139.738;2022-12-11T12:33:10;100330.00;;;15.08;41.50
9415;BME280;4746;35.664;139.738;2022-12-11T12:38:56;100333.34;;;15.19;41.66
9415;BME280;4746;35.664;139.738;2022-12-11T12:47:46;100356.59;;;15.19;41.21
9415;BME280;4746;35.664;139.738;2022-12-11T12:50:25;100360.84;;;15.20;41.52
9415;BME280;4746;35.664;139.738;2022-12-11T12:53:27;100373.78;;;15.19;41.23
9415;BME280;4746;35.664;139.738;2022-12-11T12:55:56;100372.97;;;15.14;41.18
9415;BME280;4746;35.664;139.738;2022-12-11T13:01:20;100367.88;;;15.03;41.02
9415;BME280;4746;35.664;139.738;2022-12-11T13:06:44;100372.38;;;14.80;41.09
9415;BME280;4746;35.664;139.738;2022-12-11T13:09:23;100372.41;;;14.79;41.57
9415;BME280;4746;35.664;139.738;2022-12-11T13:11:54;100383.59;;;14.76;41.48
9415;BME280;4746;35.664;139.738;2022-12-11T13:14:33;100391.34;;;14.75;41.48
9415;BME280;4746;35.664;139.738;2022-12-11T13:17:25;100392.16;;;14.78;41.50
9415;BME280;4746;35.664;139.738;2022-12-11T13:20:19;100390.44;;;14.83;42.25
9415;BME280;4746;35.664;139.738;2022-12-11T13:23:15;100389.50;;;14.90;42.22
9415;BME280;4746;35.664;139.738;2022-12-11T13:25:54;100386.06;;;14.93;42.38
9415;BME280;4746;35.664;139.738;2022-12-11T13:28:48;100395.50;;;14.92;41.80
9415;BME280;4746;35.664;139.738;2022-12-11T13:33:55;100386.94;;;14.87;42.13
9415;BME280;4746;35.664;139.738;2022-12-11T13:36:30;100373.25;;;14.82;42.26
9415;BME280;4746;35.664;139.738;2022-12-11T13:39:02;100369.84;;;14.77;42.46
9415;BME280;4746;35.664;139.738;2022-12-11T13:41:35;100359.53;;;14.74;42.45
9415;BME280;4746;35.664;139.738;2022-12-11T13:44:05;100373.31;;;14.67;43.00
9415;BME280;4746;35.664;139.738;2022-12-11T13:46:36;100364.78;;;14.62;42.65
9415;BME280;4746;35.664;139.738;2022-12-11T13:49:15;100360.50;;;14.58;42.67
9415;BME280;4746;35.664;139.738;2022-12-11T13:51:59;100371.72;;;14.55;42.98
9415;BME280;4746;35.664;139.738;2022-12-11T13:54:29;100374.31;;;14.50;43.27
9415;BME280;4746;35.664;139.738;2022-12-11T13:59:41;100385.47;;;14.51;43.27
9415;BME280;4746;35.664;139.738;2022-12-11T14:02:33;100382.03;;;14.52;43.14
9415;BME280;4746;35.664;139.738;2022-12-11T14:05:11;100363.13;;;14.50;42.92
9415;BME280;4746;35.664;139.738;2022-12-11T14:08:01;100358.91;;;14.44;42.52
9415;BME280;4746;35.664;139.738;2022-12-11T14:10:33;100352.94;;;14.32;42.93
9415;BME280;4746;35.664;139.738;2022-12-11T14:13:21;100361.59;;;14.25;42.53
9415;BME280;4746;35.664;139.738;2022-12-11T14:15:51;100373.69;;;14.14;42.65
9415;BME280;4746;35.664;139.738;2022-12-11T14:18:32;100371.09;;;14.12;42.63
9415;BME280;4746;35.664;139.738;2022-12-11T14:21:04;100378.81;;;14.08;42.83
9415;BME280;4746;35.664;139.738;2022-12-11T14:23:36;100366.81;;;14.07;42.83
9415;BME280;4746;35.664;139.738;2022-12-11T14:28:42;100360.81;;;13.99;42.93
9415;BME280;4746;35.664;139.738;2022-12-11T14:31:17;100362.53;;;13.95;42.86
9415;BME280;4746;35.664;139.738;2022-12-11T14:33:53;100358.25;;;13.97;42.84
9415;BME280;4746;35.664;139.738;2022-12-11T14:36:23;100367.75;;;13.88;43.17
9415;BME280;4746;35.664;139.738;2022-12-11T14:39:02;100371.13;;;13.99;42.84
9415;BME280;4746;35.664;139.738;2022-12-11T14:42:22;100385.69;;;14.03;42.63
9415;BME280;4746;35.664;139.738;2022-12-11T14:45:06;100379.72;;;14.01;42.92
9415;BME280;4746;35.664;139.738;2022-12-11T14:47:43;100382.28;;;14.01;43.06
9415;BME280;4746;35.664;139.738;2022-12-11T14:50:30;100396.03;;;13.98;42.96
9415;BME280;4746;35.664;139.738;2022-12-11T14:53:08;100408.03;;;13.98;43.47
9415;BME280;4746;35.664;139.738;2022-12-11T14:55:39;100419.22;;;14.00;43.43
9415;BME280;4746;35.664;139.738;2022-12-11T14:58:25;100408.03;;;14.02;43.26
9415;BME280;4746;35.664;139.738;2022-12-11T15:01:05;100422.63;;;14.03;43.63
9415;BME280;4746;35.664;139.738;2022-12-11T15:03:39;100419.19;;;14.03;43.58
9415;BME280;4746;35.664;139.738;2022-12-11T15:06:41;100421.75;;;14.09;43.78
9415;BME280;4746;35.664;139.738;2022-12-11T15:11:58;100424.31;;;14.09;43.87
9415;BME280;4746;35.664;139.738;2022-12-11T15:14:39;100437.19;;;14.09;43.37
9415;BME280;4746;35.664;139.738;2022-12-11T15:17:13;100437.19;;;14.09;43.48
9415;BME280;4746;35.664;139.738;2022-12-11T15:19:47;100437.19;;;14.09;43.47